createdAt,value
2023-03-06T00:30:11.588Z,22.35
2023-03-06T00:33:11.637Z,22.39
2023-03-06T00:34:11.743Z,22.39
2023-03-06T00:35:11.786Z,22.40
2023-03-06T00:36:11.734Z,22.40
2023-03-06T00:43:01.382Z,22.06
2023-03-06T00:44:01.085Z,22.26
2023-03-06T00:45:01.197Z,22.32
2023-03-06T00:46:01.237Z,22.35
2023-03-06T00:47:01.169Z,22.37
2023-03-06T00:48:01.270Z,22.39
2023-03-06T00:49:01.271Z,22.39
2023-03-06T00:50:01.328Z,22.40
2023-03-06T00:51:01.399Z,22.41
2023-03-06T00:52:01.350Z,22.41
2023-03-06T00:53:01.388Z,22.42
2023-03-06T00:54:01.482Z,22.42
2023-03-06T00:55:01.404Z,22.42
2023-03-06T00:56:01.435Z,22.42
2023-03-06T00:57:01.478Z,22.43
2023-03-06T00:58:01.485Z,22.43
2023-03-06T00:59:01.463Z,22.43
2023-03-06T01:09:29.998Z,22.01
2023-03-06T01:11:29.668Z,22.28
2023-03-06T01:15:29.827Z,22.37
2023-03-06T01:30:30.066Z,22.43
2023-03-06T01:31:29.946Z,22.43
2023-03-06T01:32:29.991Z,22.43
2023-03-06T01:33:29.943Z,22.43
2023-03-06T01:34:29.971Z,22.42
2023-03-06T01:36:29.911Z,22.42
2023-03-06T01:37:29.876Z,22.42
2023-03-06T01:38:29.924Z,22.43
2023-03-06T01:39:29.981Z,22.43
2023-03-06T01:40:30.036Z,22.43
2023-03-06T01:41:29.916Z,22.43
2023-03-06T01:43:29.964Z,22.42
2023-03-06T01:44:29.994Z,22.43
2023-03-06T01:45:30.016Z,22.42
2023-03-06T01:46:29.918Z,22.43
2023-03-06T01:47:30.079Z,22.43
2023-03-06T01:48:29.919Z,22.43
2023-03-06T01:50:29.886Z,22.44
2023-03-06T01:52:29.894Z,22.43
2023-03-06T01:53:29.949Z,22.44
2023-03-06T01:55:30.029Z,22.44
2023-03-06T01:56:29.901Z,22.44
2023-03-06T01:57:29.992Z,22.45
2023-03-06T01:58:29.803Z,22.44
2023-03-06T01:59:29.852Z,22.45
2023-03-06T02:00:29.873Z,22.45
2023-03-06T02:01:29.917Z,22.44
2023-03-06T02:02:30.033Z,22.45
2023-03-06T02:03:29.887Z,22.45
2023-03-06T02:04:30.910Z,22.45
2023-03-06T02:05:29.909Z,22.45
2023-03-06T02:06:29.899Z,22.44
2023-03-06T02:07:29.849Z,22.45
2023-03-06T02:08:29.890Z,22.44
2023-03-06T02:09:29.937Z,22.44
2023-03-06T02:10:29.971Z,22.45
2023-03-06T02:11:29.983Z,22.45
2023-03-06T02:12:29.795Z,22.45
2023-03-06T02:13:29.946Z,22.47
2023-03-06T02:14:29.933Z,22.47
2023-03-06T02:15:29.820Z,22.48
2023-03-06T02:16:29.861Z,22.48
2023-03-06T02:17:29.893Z,22.49
2023-03-06T02:18:29.801Z,22.49
2023-03-06T02:19:29.893Z,22.49
2023-03-06T02:20:29.890Z,22.49
2023-03-06T02:21:29.867Z,22.50
2023-03-06T02:22:29.796Z,22.51
2023-03-06T02:23:29.828Z,22.52
2023-03-06T02:24:29.872Z,22.52
2023-03-06T02:25:29.966Z,22.54
2023-03-06T02:27:48.802Z,22.51
2023-03-06T02:28:49.010Z,22.53
2023-03-06T02:32:38.416Z,22.28
2023-03-06T02:33:38.050Z,22.47
2023-03-06T02:34:38.158Z,22.52
2023-03-06T02:35:38.110Z,22.55
2023-03-06T02:36:38.132Z,22.58
2023-03-06T02:37:38.150Z,22.60
2023-03-06T02:38:38.168Z,22.62
2023-03-06T02:39:38.164Z,22.64
2023-03-06T02:40:38.280Z,22.65
2023-03-06T02:41:38.211Z,22.66
2023-03-06T02:42:38.184Z,22.68
2023-03-06T02:43:38.212Z,22.68
2023-03-06T02:44:38.186Z,22.69
2023-03-06T02:45:38.201Z,22.71
2023-03-06T02:46:38.182Z,22.71
2023-03-06T02:47:38.207Z,22.72
2023-03-06T02:48:38.184Z,22.72
2023-03-06T02:49:38.235Z,22.73
2023-03-06T02:50:38.237Z,22.74
2023-03-06T02:51:38.333Z,22.75
2023-03-06T02:52:38.309Z,22.76
2023-03-06T02:53:38.323Z,22.75
2023-03-06T02:54:38.380Z,22.77
2023-03-06T04:55:18.071Z,22.45
2023-03-06T04:56:18.141Z,22.67
2023-03-06T04:57:18.229Z,22.73
2023-03-06T04:58:17.931Z,22.77
2023-03-06T04:59:18.002Z,22.78
2023-03-06T05:00:18.052Z,22.80
2023-03-06T05:01:18.101Z,22.81
2023-03-06T05:02:18.028Z,22.82
2023-03-06T05:37:02.476Z,22.74
2023-03-06T05:38:02.566Z,22.77
2023-03-06T05:39:02.502Z,22.78
2023-03-06T05:40:02.652Z,22.79
2023-03-06T05:41:02.445Z,22.79
2023-03-06T05:42:02.399Z,22.80
2023-03-06T05:43:02.374Z,22.79
2023-03-06T05:44:02.365Z,22.80
2023-03-06T05:45:02.422Z,22.80
2023-03-06T05:46:02.447Z,22.81
2023-03-06T05:47:02.427Z,22.81
2023-03-06T05:48:02.368Z,22.82
2023-03-06T05:49:02.366Z,22.82
2023-03-06T07:35:13.745Z,20.67
2023-03-06T07:36:02.204Z,20.88
2023-03-06T07:44:01.572Z,21.00
2023-03-06T07:47:01.548Z,21.21
2023-03-06T08:05:53.891Z,22.03
2023-03-06T08:06:53.540Z,22.08
2023-03-06T08:14:28.634Z,21.82
2023-03-06T08:15:22.765Z,22.03
2023-03-06T08:16:21.329Z,22.10
2023-03-06T08:27:25.894Z,21.95
2023-03-06T08:32:03.449Z,22.20
2023-03-06T08:48:58.066Z,21.48
2023-03-06T08:54:24.136Z,21.76
2023-03-06T08:55:24.784Z,21.87
2023-03-06T08:56:23.734Z,21.93
2023-03-06T08:57:25.097Z,21.97
2023-03-06T08:58:23.832Z,22.00
2023-03-06T08:59:23.772Z,22.03
2023-03-06T09:00:23.864Z,22.06
2023-03-06T09:01:23.359Z,22.08
2023-03-06T09:02:23.952Z,22.10
2023-03-06T09:15:01.462Z,22.18
2023-03-06T09:16:00.876Z,22.22
2023-03-06T09:17:01.759Z,22.26
2023-03-06T09:18:01.659Z,22.27
2023-03-06T09:29:23.492Z,22.07
2023-03-06T09:30:23.222Z,22.28
2023-03-06T09:31:22.772Z,22.33
2023-03-06T09:32:22.743Z,22.28
2023-03-06T09:33:22.766Z,22.21
2023-03-06T09:34:22.951Z,22.23
2023-03-06T09:36:59.138Z,21.88
2023-03-06T10:52:10.078Z,21.78
2023-03-06T11:05:29.318Z,21.83
2023-03-06T12:23:44.956Z,22.33
2023-03-06T12:33:22.980Z,21.79
2023-03-06T12:35:41.790Z,21.32
2023-03-06T13:51:32.103Z,19.24
2023-03-06T13:52:32.693Z,19.25
2023-03-06T14:24:07.144Z,21.64
2023-03-06T14:25:06.921Z,21.92
2023-03-06T14:26:07.143Z,22.01
2023-03-06T14:37:44.617Z,22.20
2023-03-06T14:38:44.873Z,22.22
2023-03-06T14:39:45.150Z,22.26
2023-03-06T14:42:04.152Z,22.24
2023-03-06T14:48:00.699Z,22.21
2023-03-06T14:53:39.713Z,22.23
2023-03-06T14:55:58.136Z,22.26
2023-03-06T14:56:58.135Z,22.30
2023-03-06T14:57:57.907Z,22.32
2023-03-06T14:58:58.153Z,22.34
2023-03-06T14:59:58.022Z,22.34
2023-03-06T15:00:58.355Z,22.36
2023-03-06T15:01:58.020Z,22.37
2023-03-06T15:09:59.486Z,22.18
2023-03-06T15:12:42.572Z,22.08
2023-03-06T15:16:59.701Z,21.90
2023-03-06T15:17:57.200Z,22.10
2023-03-06T15:18:56.450Z,22.17
2023-03-06T15:19:56.593Z,22.22
2023-03-06T15:39:20.814Z,22.29
2023-03-06T15:40:20.899Z,22.36
2023-03-06T15:41:20.937Z,22.40
2023-03-06T15:42:20.934Z,22.45
2023-03-06T15:43:21.056Z,22.47
2023-03-06T15:45:21.005Z,22.52
2023-03-06T15:46:21.040Z,22.53
2023-03-06T18:06:30.374Z,22.22
2023-03-06T18:12:49.753Z,22.16
2023-03-06T18:18:55.770Z,22.25
2023-03-06T18:47:53.527Z,22.01
2023-03-06T18:54:53.320Z,22.02
2023-03-06T18:57:12.347Z,22.21
2023-03-06T18:58:12.205Z,22.30
2023-03-06T19:00:32.061Z,22.26
2023-03-06T19:02:49.577Z,22.19
2023-03-06T19:37:37.681Z,22.02
